KSNC

Chester Airport

Chester, Connecticut, USA
METAR KSNC 151855Z AUTO 02005KT 10SM OVC042 11/08 A3011 RMK AO2
Observed Flight Rules
Dec-15 @ 18:55 UTC (10 minutes ago) Visual Flight Rules
Wind Visibility Clouds
20° at 5 knots 10 miles
  • Overcast at 4,200' AGL
Temperatures Readings
Current 11°C / 52°F
Dewpoint 8°C / 46°F
Humidity 82%
Altimeter 30.11" Hg
Pressure 1020 hPa
Elevation 127
METAR KSNC 151855Z AUTO 02005KT 10SM OVC042 11/08 A3011 RMK AO2
Observed Flight Rules
Dec-15 @ 18:55 UTC
(10 minutes ago)
VFR
Wind Visibility
20° at 5 knots 10 miles
Clouds
  • Overcast at 4,200' AGL
Temperature Dewpoint
11°C / 52°F 8°C / 46°F
Humidity Altimeter Pressure
82% 30.11" Hg 1020 hPa